Time;durP1;ratioP1;P1;durP2;ratioP2;P2;SDS_P1;SDS_P2;PMS_P1;PMS_P2;Temp;Humidity;BMP_temperature;BMP_pressure;BME280_temperature;BME280_humidity;BME280_pressure;Samples;Min_cycle;Max_cycle;Signal;HPM_P1;HPM_P2
2022/02/20 00:01:31;;;;;;;6.97;3.60;;;;;;;7.85;51.07;100806.13;5106322;27;20031;-70
2022/02/20 00:03:59;;;;;;;10.07;4.55;;;;;;;7.80;50.39;100790.44;5105937;28;20421;-70
2022/02/20 00:06:25;;;;;;;7.18;3.88;;;;;;;7.76;50.68;100799.63;5106297;28;20015;-70
2022/02/20 00:08:50;;;;;;;9.60;4.38;;;;;;;7.68;51.68;100793.97;5106087;28;20503;-70
2022/02/20 00:11:16;;;;;;;20.35;4.32;;;;;;;7.72;51.34;100795.47;5105055;28;20038;-70
2022/02/20 00:13:41;;;;;;;10.32;3.70;;;;;;;7.61;52.03;100779.31;5106024;28;20475;-71
2022/02/20 00:16:07;;;;;;;11.10;3.72;;;;;;;7.60;51.06;100788.28;5104622;28;20043;-69
2022/02/20 00:18:32;;;;;;;8.05;3.70;;;;;;;7.52;51.39;100774.63;5104856;28;20032;-70
2022/02/20 00:20:58;;;;;;;11.02;3.85;;;;;;;7.58;51.62;100782.19;5105935;28;20023;-70
2022/02/20 00:23:23;;;;;;;8.52;3.78;;;;;;;7.54;52.09;100783.34;5105797;28;20035;-70
2022/02/20 00:25:49;;;;;;;8.60;3.58;;;;;;;7.43;51.31;100772.56;5104618;28;20106;-69
2022/02/20 00:28:14;;;;;;;9.77;4.40;;;;;;;7.50;51.22;100787.19;5111060;28;20019;-77
2022/02/20 00:30:40;;;;;;;9.82;4.28;;;;;;;7.47;50.96;100782.06;5110682;28;20032;-76
2022/02/20 00:33:06;;;;;;;12.98;4.88;;;;;;;7.50;51.11;100781.84;5109282;28;20055;-76
2022/02/20 00:35:33;;;;;;;8.60;4.15;;;;;;;7.46;51.26;100785.69;5113112;28;20099;-77
2022/02/20 00:37:59;;;;;;;9.82;4.43;;;;;;;7.38;51.93;100777.34;5111270;28;20020;-76
2022/02/20 00:40:25;;;;;;;11.55;4.07;;;;;;;7.37;51.76;100780.97;5115791;27;20042;-69
2022/02/20 00:42:51;;;;;;;9.23;3.95;;;;;;;7.36;51.82;100789.94;5114394;27;20031;-76
2022/02/20 00:45:16;;;;;;;11.85;4.10;;;;;;;7.24;52.33;100768.56;5117319;27;20039;-76
2022/02/20 00:47:42;;;;;;;10.75;4.68;;;;;;;7.30;53.13;100787.69;5116798;27;20478;-76
2022/02/20 00:50:08;;;;;;;9.88;4.45;;;;;;;7.21;53.06;100780.28;5117699;27;20692;-76
2022/02/20 00:52:34;;;;;;;11.65;5.18;;;;;;;7.26;53.00;100798.66;5117041;27;20379;-76
2022/02/20 00:54:59;;;;;;;12.60;4.38;;;;;;;7.23;53.42;100791.72;5115963;27;20092;-76
2022/02/20 00:57:25;;;;;;;12.77;4.88;;;;;;;7.19;53.97;100773.34;5116849;27;20080;-76
2022/02/20 00:59:52;;;;;;;13.52;4.97;;;;;;;7.14;54.71;100784.31;5115153;27;20039;-69
2022/02/20 01:02:18;;;;;;;11.10;4.85;;;;;;;7.09;54.81;100785.59;5112953;27;20030;-70
2022/02/20 01:04:44;;;;;;;8.95;4.50;;;;;;;7.05;54.94;100776.94;5113862;27;20027;-70
2022/02/20 01:07:09;;;;;;;8.70;4.22;;;;;;;6.97;55.32;100774.75;5114166;27;20030;-69
2022/02/20 01:09:35;;;;;;;9.40;4.18;;;;;;;6.92;55.64;100773.34;5114273;28;20038;-69
2022/02/20 01:12:01;;;;;;;9.23;4.05;;;;;;;6.81;55.71;100771.38;5114240;27;20063;-70
2022/02/20 01:14:27;;;;;;;9.73;4.00;;;;;;;6.76;56.75;100773.50;5114515;27;20058;-70
2022/02/20 01:16:52;;;;;;;9.18;3.97;;;;;;;6.77;57.59;100782.34;5115204;27;20039;-68
2022/02/20 01:19:17;;;;;;;11.30;3.90;;;;;;;6.76;57.94;100778.84;5121673;27;20104;-69
2022/02/20 01:21:43;;;;;;;7.88;4.03;;;;;;;6.70;58.65;100762.38;5121236;27;20028;-70
2022/02/20 01:24:08;;;;;;;10.00;3.88;;;;;;;6.66;59.68;100767.06;5120582;27;20039;-68
2022/02/20 01:26:35;;;;;;;10.73;4.90;;;;;;;6.61;59.41;100768.31;5118654;28;20072;-69
2022/02/20 01:29:00;;;;;;;9.98;4.38;;;;;;;6.57;59.91;100757.00;5120621;27;20028;-69
2022/02/20 01:31:26;;;;;;;8.98;3.95;;;;;;;6.50;60.16;100753.03;5120683;27;20064;-70
2022/02/20 01:33:51;;;;;;;7.43;3.90;;;;;;;6.51;61.21;100759.19;5119422;28;20100;-69
2022/02/20 01:36:17;;;;;;;11.98;4.38;;;;;;;6.35;61.87;100739.81;5119406;27;20087;-70
2022/02/20 01:38:42;;;;;;;7.22;3.88;;;;;;;6.36;61.58;100749.53;5117668;27;20027;-70
2022/02/20 01:41:08;;;;;;;7.85;4.05;;;;;;;6.31;62.43;100759.59;5114560;27;20043;-70
2022/02/20 01:43:33;;;;;;;12.23;3.97;;;;;;;6.20;62.42;100747.00;5113236;27;20040;-70
2022/02/20 01:45:59;;;;;;;8.63;4.55;;;;;;;6.12;63.05;100751.06;5114363;27;20039;-68
2022/02/20 01:48:25;;;;;;;8.43;4.18;;;;;;;6.05;63.88;100736.44;5114343;27;20058;-70
2022/02/20 01:50:51;;;;;;;7.60;3.67;;;;;;;6.08;64.25;100746.88;5111588;27;20024;-71
2022/02/20 01:53:18;;;;;;;10.45;4.05;;;;;;;5.94;65.09;100731.75;5110813;28;20046;-68
2022/02/20 01:55:44;;;;;;;7.75;3.72;;;;;;;5.92;66.13;100740.81;5110955;28;20038;-69
2022/02/20 01:58:10;;;;;;;8.88;4.18;;;;;;;5.92;66.17;100760.31;5110950;28;20035;-69
2022/02/20 02:00:35;;;;;;;8.40;3.80;;;;;;;5.81;66.51;100745.91;5110675;28;20028;-76
2022/02/20 02:03:01;;;;;;;8.00;3.53;;;;;;;5.72;66.83;100742.00;5114890;28;20506;-76
2022/02/20 02:05:27;;;;;;;10.55;4.43;;;;;;;5.74;66.88;100742.75;5111530;28;20039;-69
2022/02/20 02:07:52;;;;;;;8.02;3.88;;;;;;;5.69;67.17;100739.53;5110663;28;20073;-69
2022/02/20 02:10:18;;;;;;;7.85;3.85;;;;;;;5.63;66.99;100741.69;5110419;28;20080;-68
2022/02/20 02:12:44;;;;;;;9.40;3.95;;;;;;;5.60;67.10;100744.53;5110045;28;20100;-77
2022/02/20 02:15:12;;;;;;;6.80;3.65;;;;;;;5.49;67.49;100731.91;5112689;28;20042;-76
2022/02/20 02:17:38;;;;;;;10.68;4.05;;;;;;;5.42;68.59;100732.38;5113899;28;20023;-77
2022/02/20 02:20:06;;;;;;;7.45;3.97;;;;;;;5.41;68.31;100723.53;5113621;28;20068;-76
2022/02/20 02:22:33;;;;;;;7.40;3.55;;;;;;;5.35;68.61;100723.06;5113527;28;20027;-76
2022/02/20 02:24:59;;;;;;;5.82;3.40;;;;;;;5.26;68.92;100711.16;5113594;28;20479;-77
2022/02/20 02:27:25;;;;;;;9.50;4.03;;;;;;;5.23;68.62;100711.34;5111173;28;20036;-77
2022/02/20 02:29:52;;;;;;;7.88;3.35;;;;;;;5.17;69.16;100711.72;5113167;28;21064;-77
2022/02/20 02:32:18;;;;;;;11.30;3.88;;;;;;;5.02;69.90;100691.34;5114490;27;20032;-76
2022/02/20 02:34:45;;;;;;;9.00;4.15;;;;;;;5.07;70.62;100702.56;5113197;28;20028;-76
2022/02/20 02:37:11;;;;;;;9.23;4.20;;;;;;;5.07;71.50;100699.91;5112369;28;20032;-76
2022/02/20 02:39:38;;;;;;;7.88;3.42;;;;;;;5.00;71.65;100695.88;5113169;28;20080;-77
2022/02/20 02:42:05;;;;;;;15.05;4.97;;;;;;;4.96;71.54;100689.03;5113545;28;20039;-76
2022/02/20 02:44:30;;;;;;;7.85;3.65;;;;;;;4.94;72.16;100690.97;5111126;27;20050;-76
2022/02/20 02:46:56;;;;;;;15.77;4.38;;;;;;;4.89;72.05;100690.34;5112313;28;20453;-76
2022/02/20 02:49:21;;;;;;;7.88;3.90;;;;;;;4.83;72.43;100688.06;5112874;28;20032;-76
2022/02/20 02:51:47;;;;;;;9.85;3.83;;;;;;;4.74;72.69;100681.47;5112816;28;20034;-76
2022/02/20 02:54:17;;;;;;;7.93;4.18;;;;;;;4.77;73.12;100703.50;5112045;28;20063;-76
2022/02/20 02:56:46;;;;;;;11.98;4.28;;;;;;;4.72;73.29;100699.34;5111608;28;20043;-76
2022/02/20 02:59:12;;;;;;;12.23;4.40;;;;;;;4.71;73.51;100699.41;5112024;27;20088;-77
2022/02/20 03:01:37;;;;;;;8.88;3.88;;;;;;;4.60;73.83;100689.41;5111124;28;20031;-77
2022/02/20 03:04:03;;;;;;;8.20;4.55;;;;;;;4.65;74.39;100705.91;5112099;28;20035;-77
2022/02/20 03:06:28;;;;;;;8.98;3.65;;;;;;;4.61;75.13;100690.25;5112260;28;20126;-77
2022/02/20 03:08:53;;;;;;;10.57;3.90;;;;;;;4.63;75.79;100694.53;5112019;28;20023;-76
2022/02/20 03:11:19;;;;;;;9.63;3.85;;;;;;;4.58;76.16;100685.97;5111829;28;20043;-76
2022/02/20 03:13:44;;;;;;;10.05;4.07;;;;;;;4.62;76.85;100700.78;5111767;28;20102;-76
2022/02/20 03:16:11;;;;;;;8.30;3.85;;;;;;;4.60;76.97;100702.69;5112188;28;20032;-76
2022/02/20 03:18:36;;;;;;;5.45;3.38;;;;;;;4.68;77.44;100704.91;5111051;28;20031;-76
2022/02/20 03:21:06;;;;;;;10.50;4.40;;;;;;;4.61;77.86;100696.41;5111624;28;20039;-76
2022/02/20 03:23:32;;;;;;;9.27;3.88;;;;;;;4.68;78.12;100694.28;5108774;28;20475;-75
2022/02/20 03:25:58;;;;;;;11.05;4.43;;;;;;;4.67;78.53;100682.78;5110184;28;20096;-76
2022/02/20 03:28:23;;;;;;;8.85;4.47;;;;;;;4.64;78.95;100679.44;5109968;28;20028;-76
2022/02/20 03:30:49;;;;;;;11.15;4.80;;;;;;;4.78;79.39;100684.81;5108842;28;20027;-76
2022/02/20 03:33:15;;;;;;;10.82;4.80;;;;;;;4.78;80.14;100684.81;5110415;28;20024;-77
2022/02/20 03:35:42;;;;;;;12.55;5.43;;;;;;;4.88;81.17;100686.00;5110705;28;20474;-77
2022/02/20 03:38:08;;;;;;;9.38;4.47;;;;;;;4.93;82.47;100689.22;5110308;28;20041;-77
2022/02/20 03:40:33;;;;;;;9.65;5.30;;;;;;;4.97;82.80;100684.59;5109197;28;20027;-76
2022/02/20 03:42:59;;;;;;;11.43;5.13;;;;;;;5.02;83.19;100685.16;5110667;28;20032;-76
2022/02/20 03:45:26;;;;;;;13.70;5.07;;;;;;;5.06;83.81;100682.22;5108211;28;20046;-76
2022/02/20 03:47:52;;;;;;;10.32;5.10;;;;;;;5.12;83.95;100683.69;5110169;28;20050;-77
2022/02/20 03:50:18;;;;;;;11.75;5.13;;;;;;;5.11;84.25;100681.97;5110265;28;20039;-77
2022/02/20 03:52:45;;;;;;;13.93;5.78;;;;;;;5.13;84.88;100686.25;5109205;28;20016;-75
2022/02/20 03:55:12;;;;;;;7.13;4.47;;;;;;;5.18;85.17;100684.16;5111895;28;20032;-75
2022/02/20 03:57:38;;;;;;;11.00;4.95;;;;;;;5.22;85.63;100691.00;5112110;28;20042;-76
2022/02/20 04:00:10;;;;;;;11.07;4.35;;;;;;;5.24;86.03;100698.88;5111881;28;20271;-76
2022/02/20 04:02:39;;;;;;;11.13;4.47;;;;;;;5.24;85.92;100698.88;5110105;28;20471;-76
2022/02/20 04:05:07;;;;;;;8.52;4.72;;;;;;;5.29;85.88;100695.00;5109546;28;20035;-76
2022/02/20 04:07:33;;;;;;;10.10;5.05;;;;;;;5.32;85.80;100692.16;5109880;28;20015;-76
2022/02/20 04:09:59;;;;;;;10.25;5.07;;;;;;;5.33;85.36;100682.38;5111603;28;20763;-76
2022/02/20 04:12:25;;;;;;;9.13;4.85;;;;;;;5.32;85.48;100676.22;5110378;28;20028;-76
2022/02/20 04:14:51;;;;;;;10.70;4.82;;;;;;;5.34;85.41;100663.69;5111304;28;20076;-76
2022/02/20 04:17:17;;;;;;;9.93;5.90;;;;;;;5.41;85.79;100674.78;5112208;28;20020;-77
2022/02/20 04:19:43;;;;;;;14.45;5.18;;;;;;;5.42;85.69;100676.53;5110637;28;20081;-76
2022/02/20 04:22:08;;;;;;;11.30;4.95;;;;;;;5.38;85.94;100667.88;5108592;28;20122;-76
2022/02/20 04:24:34;;;;;;;10.82;5.47;;;;;;;5.39;85.84;100666.94;5111524;28;20114;-76
2022/02/20 04:26:59;;;;;;;10.48;5.47;;;;;;;5.45;86.07;100674.50;5109688;28;20110;-76
2022/02/20 04:29:24;;;;;;;12.30;5.65;;;;;;;5.46;86.27;100673.59;5110934;28;20024;-76
2022/02/20 04:31:50;;;;;;;10.82;5.53;;;;;;;5.49;86.34;100675.19;5110183;28;20016;-76
2022/02/20 04:34:15;;;;;;;11.98;6.00;;;;;;;5.45;86.33;100674.50;5109037;28;20106;-77
2022/02/20 04:36:41;;;;;;;8.23;5.35;;;;;;;5.51;86.33;100684.78;5109673;28;20024;-76
2022/02/20 04:39:09;;;;;;;13.60;5.40;;;;;;;5.49;86.01;100676.06;5110499;28;20023;-76
2022/02/20 04:41:35;;;;;;;10.00;5.18;;;;;;;5.55;86.11;100682.81;5110059;28;20677;-76
2022/02/20 04:44:00;;;;;;;8.65;5.32;;;;;;;5.54;86.02;100689.91;5108602;28;20096;-76
2022/02/20 04:46:25;;;;;;;12.98;5.20;;;;;;;5.55;85.96;100688.94;5109762;28;20483;-76
2022/02/20 04:48:51;;;;;;;11.00;5.97;;;;;;;5.46;85.19;100665.59;5112573;28;20047;-76
2022/02/20 04:51:17;;;;;;;12.30;5.63;;;;;;;5.52;85.06;100672.34;5115101;28;20178;-77
2022/02/20 04:53:42;;;;;;;11.57;6.10;;;;;;;5.57;85.15;100681.75;5108920;28;20027;-76
2022/02/20 04:56:08;;;;;;;16.23;6.95;;;;;;;5.51;84.87;100668.00;5108118;28;20069;-76
2022/02/20 04:58:33;;;;;;;13.82;6.72;;;;;;;5.57;84.94;100673.78;5108893;28;20052;-70
2022/02/20 05:00:59;;;;;;;15.27;6.72;;;;;;;5.49;84.87;100661.88;5105114;28;20047;-70
2022/02/20 05:03:24;;;;;;;15.00;7.00;;;;;;;5.47;85.09;100654.00;5107063;28;20156;-70
2022/02/20 05:05:50;;;;;;;17.42;7.30;;;;;;;5.57;85.03;100671.09;5106644;28;20027;-70
2022/02/20 05:08:15;;;;;;;11.70;6.10;;;;;;;5.59;84.93;100674.53;5107211;28;20028;-69
2022/02/20 05:10:41;;;;;;;13.73;6.70;;;;;;;5.53;85.09;100656.28;5104845;28;20468;-69
2022/02/20 05:13:06;;;;;;;12.60;6.43;;;;;;;5.60;84.63;100676.25;5107315;28;20076;-69
2022/02/20 05:15:32;;;;;;;14.45;7.05;;;;;;;5.55;84.88;100658.84;5107389;28;20172;-69
2022/02/20 05:17:58;;;;;;;14.90;6.90;;;;;;;5.62;84.80;100665.50;5107693;28;20012;-69
2022/02/20 05:20:23;;;;;;;15.80;7.32;;;;;;;5.62;84.97;100662.84;5107891;28;20027;-69
2022/02/20 05:22:49;;;;;;;15.55;7.53;;;;;;;5.65;84.88;100674.16;5108161;28;20032;-70
2022/02/20 05:25:16;;;;;;;13.93;6.85;;;;;;;5.63;84.63;100676.06;5107859;28;20036;-69
2022/02/20 05:27:45;;;;;;;15.27;7.22;;;;;;;5.62;84.69;100682.34;5111165;28;20096;-70
2022/02/20 05:30:12;;;;;;;16.15;6.95;;;;;;;5.63;84.37;100689.34;5110652;28;20035;-70
2022/02/20 05:32:38;;;;;;;16.17;7.32;;;;;;;5.63;84.66;100685.84;5111056;28;20027;-70
2022/02/20 05:35:06;;;;;;;16.60;7.38;;;;;;;5.65;84.18;100695.44;5110783;28;20524;-69
2022/02/20 05:37:42;;;;;;;19.80;7.45;;;;;;;5.65;84.64;100699.91;5111006;28;20023;-69
2022/02/20 05:40:09;;;;;;;16.20;6.80;;;;;;;5.61;83.49;100688.59;5109178;28;20046;-69
2022/02/20 05:42:34;;;;;;;14.68;6.47;;;;;;;5.68;84.02;100699.72;5110686;28;20035;-69
2022/02/20 05:45:00;;;;;;;16.08;6.90;;;;;;;5.66;83.80;100704.25;5109131;28;20423;-70
2022/02/20 05:47:25;;;;;;;13.55;6.43;;;;;;;5.64;84.37;100704.38;5110895;28;20490;-69
2022/02/20 05:49:51;;;;;;;13.07;6.90;;;;;;;5.55;84.51;100682.81;5111019;27;20035;-70
2022/02/20 05:52:16;;;;;;;10.35;6.50;;;;;;;5.61;84.47;100696.56;5110866;28;20031;-69
2022/02/20 05:54:42;;;;;;;14.30;7.20;;;;;;;5.50;85.19;100677.75;5109515;28;20046;-70
2022/02/20 05:57:07;;;;;;;14.40;6.53;;;;;;;5.61;84.77;100696.56;5110586;28;20050;-69
2022/02/20 05:59:33;;;;;;;12.13;6.18;;;;;;;5.59;84.86;100692.28;5110597;28;20031;-69
2022/02/20 06:01:58;;;;;;;11.57;5.63;;;;;;;5.65;85.22;100705.22;5110652;28;20027;-69
2022/02/20 06:04:23;;;;;;;12.77;6.18;;;;;;;5.65;85.27;100703.44;5110913;28;20028;-69
2022/02/20 06:06:49;;;;;;;10.40;6.18;;;;;;;5.70;85.06;100709.31;5110481;28;20031;-69
2022/02/20 06:09:14;;;;;;;17.63;7.10;;;;;;;5.68;84.76;100705.03;5111171;27;20030;-69
2022/02/20 06:11:40;;;;;;;11.93;6.15;;;;;;;5.65;85.17;100711.41;5110640;28;20092;-70
2022/02/20 06:14:05;;;;;;;12.85;6.50;;;;;;;5.53;85.54;100690.88;5110319;28;20035;-70
2022/02/20 06:16:31;;;;;;;11.45;6.18;;;;;;;5.57;85.88;100697.72;5110431;28;20032;-70
2022/02/20 06:18:58;;;;;;;12.80;6.43;;;;;;;5.51;86.75;100675.97;5110165;28;20061;-69
2022/02/20 06:21:24;;;;;;;12.40;6.30;;;;;;;5.58;86.97;100699.41;5108062;28;20370;-68
2022/02/20 06:23:50;;;;;;;10.93;5.18;;;;;;;5.60;87.62;100700.19;5109744;28;20043;-69
2022/02/20 06:26:15;;;;;;;13.32;5.50;;;;;;;5.54;87.87;100681.94;5108786;28;20027;-70
2022/02/20 06:28:41;;;;;;;12.13;5.15;;;;;;;5.63;87.56;100692.03;5110444;28;20677;-70
2022/02/20 06:31:06;;;;;;;12.68;6.00;;;;;;;5.60;87.84;100678.03;5109888;28;20263;-69
2022/02/20 06:33:31;;;;;;;11.43;6.32;;;;;;;5.67;88.40;100693.53;5110171;28;20028;-69
2022/02/20 06:35:57;;;;;;;15.13;7.65;;;;;;;5.69;88.48;100704.94;5109495;28;20411;-69
2022/02/20 06:38:22;;;;;;;13.45;7.60;;;;;;;5.71;88.31;100695.03;5110403;28;20039;-70
2022/02/20 06:40:48;;;;;;;17.02;7.35;;;;;;;5.72;88.75;100698.56;5110055;28;20031;-70
2022/02/20 06:43:14;;;;;;;15.00;7.40;;;;;;;5.72;88.59;100696.78;5105157;28;20425;-70
2022/02/20 06:45:39;;;;;;;13.02;6.55;;;;;;;5.86;88.25;100710.09;5108182;28;20067;-69
2022/02/20 06:48:05;;;;;;;11.73;5.70;;;;;;;5.90;87.58;100697.47;5104394;27;20043;-70
2022/02/20 06:50:31;;;;;;;11.75;5.75;;;;;;;5.91;87.63;100692.06;5107351;28;20483;-70
2022/02/20 06:52:56;;;;;;;10.13;5.30;;;;;;;5.96;87.97;100691.75;5107041;28;20126;-69
2022/02/20 06:55:22;;;;;;;10.23;5.03;;;;;;;6.01;88.20;100692.31;5106843;28;20074;-69
2022/02/20 06:57:47;;;;;;;11.13;5.85;;;;;;;6.01;88.12;100682.53;5103493;28;20055;-69
2022/02/20 07:00:13;;;;;;;10.27;5.97;;;;;;;6.08;87.54;100688.31;5108001;27;20506;-69
2022/02/20 07:02:40;;;;;;;13.98;6.32;;;;;;;6.14;87.67;100688.78;5109013;27;20103;-69
2022/02/20 07:05:07;;;;;;;13.25;6.22;;;;;;;6.16;87.78;100686.03;5107864;27;20039;-69
2022/02/20 07:07:33;;;;;;;11.60;6.22;;;;;;;6.25;87.67;100696.06;5108077;28;20118;-69
2022/02/20 07:09:58;;;;;;;13.20;6.25;;;;;;;6.24;87.26;100665.06;5107774;27;20044;-69
2022/02/20 07:12:24;;;;;;;13.77;6.03;;;;;;;6.31;86.21;100655.72;5108241;28;20433;-70
2022/02/20 07:14:50;;;;;;;14.68;5.90;;;;;;;6.41;86.08;100675.47;5107969;28;20502;-69
2022/02/20 07:17:15;;;;;;;10.45;5.90;;;;;;;6.55;85.79;100676.28;5106670;28;20046;-70
2022/02/20 07:19:41;;;;;;;11.20;6.07;;;;;;;6.62;85.65;100672.25;5107940;27;20503;-70
2022/02/20 07:22:06;;;;;;;11.27;5.80;;;;;;;6.69;85.21;100676.25;5107670;28;20042;-69
2022/02/20 07:24:32;;;;;;;10.57;5.57;;;;;;;6.78;84.15;100674.78;5106110;28;20031;-69
2022/02/20 07:26:57;;;;;;;11.68;6.10;;;;;;;6.79;83.70;100672.03;5106861;28;20530;-70
2022/02/20 07:29:23;;;;;;;10.88;6.00;;;;;;;6.84;83.25;100656.56;5108008;28;20025;-69
2022/02/20 07:31:48;;;;;;;11.35;6.32;;;;;;;6.91;82.42;100665.00;5107572;27;20071;-70
2022/02/20 07:34:14;;;;;;;15.82;6.95;;;;;;;6.99;82.10;100662.66;5107121;28;20493;-70
2022/02/20 07:36:41;;;;;;;12.48;6.95;;;;;;;7.02;81.20;100659.81;5106670;27;20564;-70
2022/02/20 07:39:11;;;;;;;13.07;7.72;;;;;;;7.15;79.94;100674.00;5104633;28;20088;-70
2022/02/20 07:41:37;;;;;;;14.23;7.43;;;;;;;7.18;79.83;100675.59;5105120;27;20063;-70
2022/02/20 07:44:04;;;;;;;12.23;6.25;;;;;;;7.22;79.06;100669.13;5104235;28;20054;-69
2022/02/20 07:46:29;;;;;;;9.45;5.18;;;;;;;7.26;78.88;100670.63;5106952;27;20035;-70
2022/02/20 07:48:57;;;;;;;11.15;5.15;;;;;;;7.39;78.40;100671.47;5106359;28;20148;-70
2022/02/20 07:51:24;;;;;;;8.60;4.63;;;;;;;7.29;78.84;100643.72;5106984;28;20036;-77
2022/02/20 07:53:49;;;;;;;7.18;4.28;;;;;;;7.56;76.99;100669.34;5108093;28;20120;-76
2022/02/20 07:56:15;;;;;;;11.90;4.28;;;;;;;7.62;76.83;100666.25;5108871;27;20168;-77
2022/02/20 07:58:41;;;;;;;7.40;4.35;;;;;;;7.72;76.34;100658.44;5109411;28;20030;-76
2022/02/20 08:01:07;;;;;;;6.13;3.33;;;;;;;7.94;75.49;100675.50;5109386;28;20530;-76
2022/02/20 08:03:33;;;;;;;7.95;3.50;;;;;;;8.26;73.60;100666.03;5109340;27;20035;-76
2022/02/20 08:05:59;;;;;;;7.75;3.72;;;;;;;8.83;70.46;100658.19;5109116;28;20448;-76
2022/02/20 08:08:25;;;;;;;8.90;3.40;;;;;;;9.65;66.63;100644.66;5109282;27;20393;-77
2022/02/20 08:10:51;;;;;;;7.57;2.97;;;;;;;10.61;62.26;100647.50;5109464;27;20031;-76
2022/02/20 08:13:16;;;;;;;7.93;3.28;;;;;;;11.58;58.74;100632.84;5108617;28;20106;-77
2022/02/20 08:15:42;;;;;;;6.22;3.00;;;;;;;12.26;54.33;100608.78;5109016;28;20024;-76
2022/02/20 08:18:07;;;;;;;4.43;2.33;;;;;;;12.82;52.54;100599.06;5106963;27;20047;-71
2022/02/20 08:20:32;;;;;;;5.07;2.53;;;;;;;12.78;51.17;100596.78;5104929;28;20023;-71
2022/02/20 08:22:58;;;;;;;5.35;2.55;;;;;;;12.62;51.40;100591.13;5105840;27;20126;-71
2022/02/20 08:25:23;;;;;;;7.00;2.10;;;;;;;12.32;51.67;100596.63;5106837;28;20084;-70
2022/02/20 08:27:50;;;;;;;6.32;3.13;;;;;;;11.85;52.25;100605.38;5106286;27;20039;-70
2022/02/20 08:30:15;;;;;;;4.97;2.10;;;;;;;11.53;53.00;100616.25;5106767;28;20031;-71
2022/02/20 08:32:41;;;;;;;6.85;2.10;;;;;;;11.17;53.94;100604.19;5106835;28;20584;-71
2022/02/20 08:35:08;;;;;;;8.40;2.28;;;;;;;11.01;53.94;100629.75;5105899;28;20045;-70
2022/02/20 08:37:40;;;;;;;7.55;2.28;;;;;;;10.79;54.88;100630.72;5106921;28;20041;-70
2022/02/20 08:40:06;;;;;;;5.20;2.45;;;;;;;10.71;53.75;100633.19;5106010;27;20040;-70
2022/02/20 08:42:32;;;;;;;6.35;2.33;;;;;;;10.63;53.80;100610.66;5106624;28;20078;-70
2022/02/20 08:44:58;;;;;;;4.60;1.90;;;;;;;10.38;54.28;100627.94;5106056;27;20040;-71
2022/02/20 08:47:24;;;;;;;6.85;1.92;;;;;;;10.26;54.17;100612.00;5106821;28;20107;-71
2022/02/20 08:49:50;;;;;;;6.03;1.85;;;;;;;10.02;54.70;100606.78;5107281;27;20047;-71
2022/02/20 08:52:15;;;;;;;4.32;2.53;;;;;;;9.90;55.07;100605.06;5106788;28;20026;-70
2022/02/20 08:54:41;;;;;;;6.75;2.55;;;;;;;10.10;55.65;100617.78;5106174;27;20042;-71
2022/02/20 08:57:08;;;;;;;5.40;2.15;;;;;;;9.85;56.00;100615.31;5106031;28;20153;-71
2022/02/20 08:59:35;;;;;;;4.38;2.05;;;;;;;9.80;56.04;100616.69;5107587;28;20027;-71
2022/02/20 09:02:01;;;;;;;6.43;2.33;;;;;;;9.83;56.08;100606.53;5110265;28;20505;-71
2022/02/20 09:04:27;;;;;;;4.40;1.63;;;;;;;9.73;55.96;100605.59;5112413;28;20073;-78
2022/02/20 09:06:52;;;;;;;2.63;1.73;;;;;;;9.83;55.59;100616.44;5110523;28;20128;-78
2022/02/20 09:09:19;;;;;;;4.13;2.10;;;;;;;9.84;54.97;100616.31;5110639;28;20023;-79
2022/02/20 09:11:44;;;;;;;4.22;1.95;;;;;;;9.85;55.22;100642.13;5111427;27;20124;-78
2022/02/20 09:14:10;;;;;;;6.88;2.25;;;;;;;9.82;54.85;100639.69;5109834;28;20015;-77
2022/02/20 09:16:36;;;;;;;2.38;1.83;;;;;;;9.81;55.04;100637.13;5109163;28;20034;-71
2022/02/20 09:19:03;;;;;;;5.07;2.00;;;;;;;9.89;55.18;100648.94;5109996;28;20046;-71
2022/02/20 09:21:32;;;;;;;5.88;1.80;;;;;;;9.96;54.54;100655.50;5109999;27;20031;-71
2022/02/20 09:23:58;;;;;;;4.05;1.67;;;;;;;10.14;53.16;100653.19;5109693;28;20040;-71
2022/02/20 09:26:24;;;;;;;4.72;1.38;;;;;;;10.06;53.90;100656.50;5108113;28;20051;-71
2022/02/20 09:28:49;;;;;;;2.35;1.20;;;;;;;10.06;54.09;100656.50;5110762;28;20027;-71
2022/02/20 09:31:15;;;;;;;8.13;2.03;;;;;;;10.14;54.57;100653.19;5109838;28;20032;-71
2022/02/20 09:33:40;;;;;;;3.20;1.23;;;;;;;10.16;53.89;100638.69;5109523;27;20499;-71
2022/02/20 09:36:07;;;;;;;3.15;1.65;;;;;;;10.38;53.73;100656.59;5109757;28;20027;-71
2022/02/20 09:38:33;;;;;;;2.95;1.45;;;;;;;10.55;53.56;100653.38;5110256;28;20028;-70
2022/02/20 09:40:59;;;;;;;6.70;1.63;;;;;;;10.80;52.80;100659.25;5108350;28;20027;-70
2022/02/20 09:43:25;;;;;;;2.90;1.23;;;;;;;11.19;51.05;100655.91;5110601;27;20040;-71
2022/02/20 09:45:53;;;;;;;4.78;1.48;;;;;;;11.40;50.51;100637.97;5110125;28;20062;-70
2022/02/20 09:48:18;;;;;;;5.03;1.95;;;;;;;11.83;49.30;100653.91;5109903;27;20059;-70
2022/02/20 09:50:45;;;;;;;3.95;1.52;;;;;;;12.61;48.54;100662.09;5110395;28;20042;-70
2022/02/20 09:53:12;;;;;;;3.80;1.60;;;;;;;14.07;45.71;100640.91;5107595;28;20059;-70
2022/02/20 09:55:38;;;;;;;5.13;1.65;;;;;;;15.97;41.76;100640.34;5108386;28;20066;-70
2022/02/20 09:58:03;;;;;;;5.32;1.83;;;;;;;17.88;37.83;100639.81;5109025;28;20043;-70
2022/02/20 10:00:29;;;;;;;3.92;1.60;;;;;;;19.68;34.59;100632.97;5109624;28;20055;-70
2022/02/20 10:02:54;;;;;;;3.53;1.58;;;;;;;19.96;33.45;100637.59;5110272;28;20703;-71
2022/02/20 10:05:21;;;;;;;4.82;1.85;;;;;;;19.15;34.40;100652.13;5109944;27;20043;-70
2022/02/20 10:07:48;;;;;;;4.20;1.98;;;;;;;18.33;35.79;100666.31;5110478;28;20050;-70
2022/02/20 10:10:25;;;;;;;5.82;1.85;;;;;;;17.30;37.33;100676.31;5104874;27;20162;-70
2022/02/20 10:12:59;;;;;;;3.80;1.67;;;;;;;16.98;38.81;100674.41;5104621;28;20039;-70
2022/02/20 10:15:27;;;;;;;;;;;;;;;17.87;37.39;100667.13;5106250;28;20565;-70
2022/02/20 10:18:13;;;;;;;4.15;1.50;;;;;;;19.19;35.73;100651.53;5105896;28;20045;-70
2022/02/20 10:20:39;;;;;;;3.60;1.63;;;;;;;20.73;33.14;100640.75;5106947;28;20031;-70
2022/02/20 10:23:09;;;;;;;2.83;1.20;;;;;;;21.82;31.35;100639.31;5107818;28;20370;-71
2022/02/20 10:25:35;;;;;;;2.70;1.50;;;;;;;22.99;29.28;100641.81;5107882;27;20071;-70
2022/02/20 10:28:06;;;;;;;3.95;1.35;;;;;;;22.65;29.16;100650.97;5106752;28;20074;-71
2022/02/20 10:30:33;;;;;;;3.95;1.50;;;;;;;21.59;30.00;100630.50;5106066;27;20065;-70
2022/02/20 10:33:16;;;;;;;3.45;1.65;;;;;;;20.73;31.27;100638.84;5108156;28;20057;-70
2022/02/20 10:35:53;;;;;;;3.17;1.35;;;;;;;19.97;32.24;100638.44;5105022;28;20542;-70
2022/02/20 10:38:22;;;;;;;3.65;1.50;;;;;;;19.31;32.20;100638.44;5106651;28;20403;-69
2022/02/20 10:40:52;;;;;;;5.25;1.50;;;;;;;17.86;34.52;100632.84;5107892;27;20112;-70
2022/02/20 10:43:29;;;;;;;3.78;1.50;;;;;;;17.57;35.38;100625.28;5106583;28;20031;-70
2022/02/20 10:46:12;;;;;;;4.20;1.42;;;;;;;17.13;36.05;100626.66;5105394;27;20540;-71
2022/02/20 10:48:42;;;;;;;1.55;1.20;;;;;;;16.79;36.46;100615.09;5107160;28;20028;-70
2022/02/20 10:51:08;;;;;;;4.38;1.55;;;;;;;16.34;37.70;100602.97;5107962;27;20055;-71
2022/02/20 10:53:34;;;;;;;3.45;1.58;;;;;;;15.93;38.88;100588.44;5107775;28;20481;-71
2022/02/20 10:56:00;;;;;;;4.95;1.90;;;;;;;15.51;39.33;100584.81;5106190;27;20741;-69
2022/02/20 10:58:26;;;;;;;4.50;1.80;;;;;;;15.43;39.94;100615.34;5104798;28;20020;-69
2022/02/20 11:00:55;;;;;;;4.75;2.50;;;;;;;15.42;41.92;100620.91;5107743;28;20073;-70
2022/02/20 11:03:25;;;;;;;3.20;1.85;;;;;;;15.02;43.35;100610.59;5103275;27;20406;-70
2022/02/20 11:05:52;;;;;;;5.20;2.35;;;;;;;14.67;44.34;100613.28;5108766;27;20027;-77
2022/02/20 11:08:23;;;;;;;5.20;2.22;;;;;;;14.23;45.10;100616.88;5112620;27;20695;-77
2022/02/20 11:10:49;;;;;;;4.65;2.20;;;;;;;14.04;45.94;100611.53;5112849;28;20510;-78
2022/02/20 11:13:17;;;;;;;6.45;1.65;;;;;;;13.70;46.50;100613.09;5112670;27;20039;-78
2022/02/20 11:15:44;;;;;;;2.90;1.80;;;;;;;13.56;47.23;100625.22;5108707;28;20482;-77
2022/02/20 11:18:14;;;;;;;4.65;1.67;;;;;;;13.20;48.80;100608.97;5111114;27;20097;-78
2022/02/20 11:20:42;;;;;;;6.45;2.28;;;;;;;13.10;49.03;100622.44;5110399;28;20036;-77
2022/02/20 11:23:08;;;;;;;2.95;1.77;;;;;;;13.06;48.93;100623.72;5111187;28;20036;-78